sensor_id;sensor_type;location;lat;lon;timestamp;P1;durP1;ratioP1;P2;durP2;ratioP2
59273;SDS011;45044;41.572;24.730;2024-01-15T00:01:22;64.13;;;30.23;;
59273;SDS011;45044;41.572;24.730;2024-01-15T00:03:49;50.13;;;26.17;;
59273;SDS011;45044;41.572;24.730;2024-01-15T00:06:16;53.97;;;27.13;;
59273;SDS011;45044;41.572;24.730;2024-01-15T00:08:43;58.20;;;28.00;;
59273;SDS011;45044;41.572;24.730;2024-01-15T00:11:09;91.10;;;40.77;;
59273;SDS011;45044;41.572;24.730;2024-01-15T00:13:36;69.13;;;30.90;;
59273;SDS011;45044;41.572;24.730;2024-01-15T00:16:04;64.17;;;30.83;;
59273;SDS011;45044;41.572;24.730;2024-01-15T00:18:31;51.77;;;26.23;;
59273;SDS011;45044;41.572;24.730;2024-01-15T00:20:57;50.73;;;28.33;;
59273;SDS011;45044;41.572;24.730;2024-01-15T00:23:24;22.80;;;12.27;;
59273;SDS011;45044;41.572;24.730;2024-01-15T00:25:51;21.00;;;10.60;;
59273;SDS011;45044;41.572;24.730;2024-01-15T00:28:18;22.67;;;11.30;;
59273;SDS011;45044;41.572;24.730;2024-01-15T00:30:45;24.77;;;12.63;;
59273;SDS011;45044;41.572;24.730;2024-01-15T00:33:12;30.20;;;13.60;;
59273;SDS011;45044;41.572;24.730;2024-01-15T00:35:39;32.20;;;14.40;;
59273;SDS011;45044;41.572;24.730;2024-01-15T00:38:08;36.67;;;16.97;;
59273;SDS011;45044;41.572;24.730;2024-01-15T00:40:34;33.33;;;16.37;;
59273;SDS011;45044;41.572;24.730;2024-01-15T00:43:01;34.77;;;17.60;;
59273;SDS011;45044;41.572;24.730;2024-01-15T00:45:28;22.07;;;10.93;;
59273;SDS011;45044;41.572;24.730;2024-01-15T00:47:55;29.17;;;13.00;;
59273;SDS011;45044;41.572;24.730;2024-01-15T00:50:23;27.03;;;11.80;;
59273;SDS011;45044;41.572;24.730;2024-01-15T00:52:50;24.80;;;12.00;;
59273;SDS011;45044;41.572;24.730;2024-01-15T00:55:17;19.83;;;10.43;;
59273;SDS011;45044;41.572;24.730;2024-01-15T00:57:44;23.70;;;11.80;;
59273;SDS011;45044;41.572;24.730;2024-01-15T01:00:11;26.17;;;11.33;;
59273;SDS011;45044;41.572;24.730;2024-01-15T01:02:38;24.23;;;12.47;;
59273;SDS011;45044;41.572;24.730;2024-01-15T01:05:05;29.10;;;14.07;;
59273;SDS011;45044;41.572;24.730;2024-01-15T01:07:32;25.87;;;13.83;;
59273;SDS011;45044;41.572;24.730;2024-01-15T01:10:00;27.97;;;13.30;;
59273;SDS011;45044;41.572;24.730;2024-01-15T01:12:26;17.73;;;9.83;;
59273;SDS011;45044;41.572;24.730;2024-01-15T01:14:53;22.73;;;12.57;;
59273;SDS011;45044;41.572;24.730;2024-01-15T01:17:20;21.63;;;10.53;;
59273;SDS011;45044;41.572;24.730;2024-01-15T01:19:49;21.03;;;9.43;;
59273;SDS011;45044;41.572;24.730;2024-01-15T01:22:16;19.53;;;10.23;;
59273;SDS011;45044;41.572;24.730;2024-01-15T01:24:47;13.80;;;7.97;;
59273;SDS011;45044;41.572;24.730;2024-01-15T01:27:14;19.13;;;9.90;;
59273;SDS011;45044;41.572;24.730;2024-01-15T01:29:41;23.17;;;12.50;;
59273;SDS011;45044;41.572;24.730;2024-01-15T01:32:07;22.13;;;11.67;;
59273;SDS011;45044;41.572;24.730;2024-01-15T01:34:39;26.70;;;13.83;;
59273;SDS011;45044;41.572;24.730;2024-01-15T01:37:09;28.65;;;12.02;;
59273;SDS011;45044;41.572;24.730;2024-01-15T01:39:39;35.70;;;17.93;;
59273;SDS011;45044;41.572;24.730;2024-01-15T01:42:07;30.57;;;15.97;;
59273;SDS011;45044;41.572;24.730;2024-01-15T01:44:34;20.17;;;10.60;;
59273;SDS011;45044;41.572;24.730;2024-01-15T01:47:01;21.77;;;9.33;;
59273;SDS011;45044;41.572;24.730;2024-01-15T01:49:29;22.27;;;10.50;;
59273;SDS011;45044;41.572;24.730;2024-01-15T01:51:57;22.73;;;11.40;;
59273;SDS011;45044;41.572;24.730;2024-01-15T01:54:26;21.10;;;11.77;;
59273;SDS011;45044;41.572;24.730;2024-01-15T01:56:58;20.67;;;11.13;;
59273;SDS011;45044;41.572;24.730;2024-01-15T01:59:25;22.27;;;11.83;;
59273;SDS011;45044;41.572;24.730;2024-01-15T02:01:54;15.77;;;8.10;;
59273;SDS011;45044;41.572;24.730;2024-01-15T02:04:21;12.50;;;6.73;;
59273;SDS011;45044;41.572;24.730;2024-01-15T02:06:50;13.67;;;7.23;;
59273;SDS011;45044;41.572;24.730;2024-01-15T02:09:18;14.30;;;7.20;;
59273;SDS011;45044;41.572;24.730;2024-01-15T02:11:48;19.60;;;9.60;;
59273;SDS011;45044;41.572;24.730;2024-01-15T02:14:15;31.80;;;14.77;;
59273;SDS011;45044;41.572;24.730;2024-01-15T02:16:42;44.57;;;22.03;;
59273;SDS011;45044;41.572;24.730;2024-01-15T02:19:15;34.33;;;19.90;;
59273;SDS011;45044;41.572;24.730;2024-01-15T02:21:44;47.72;;;24.70;;
59273;SDS011;45044;41.572;24.730;2024-01-15T02:24:11;41.07;;;19.50;;
59273;SDS011;45044;41.572;24.730;2024-01-15T02:26:39;30.20;;;12.60;;
59273;SDS011;45044;41.572;24.730;2024-01-15T02:29:06;26.50;;;12.60;;
59273;SDS011;45044;41.572;24.730;2024-01-15T02:31:36;27.87;;;13.53;;
59273;SDS011;45044;41.572;24.730;2024-01-15T02:34:04;32.83;;;17.43;;
59273;SDS011;45044;41.572;24.730;2024-01-15T02:36:31;26.53;;;12.27;;
59273;SDS011;45044;41.572;24.730;2024-01-15T02:38:58;30.97;;;14.77;;
59273;SDS011;45044;41.572;24.730;2024-01-15T02:41:25;18.63;;;8.03;;
59273;SDS011;45044;41.572;24.730;2024-01-15T02:43:52;16.43;;;7.37;;
59273;SDS011;45044;41.572;24.730;2024-01-15T02:46:19;17.13;;;9.00;;
59273;SDS011;45044;41.572;24.730;2024-01-15T02:48:45;20.53;;;9.60;;
59273;SDS011;45044;41.572;24.730;2024-01-15T02:51:14;20.30;;;9.63;;
59273;SDS011;45044;41.572;24.730;2024-01-15T02:53:40;23.13;;;10.33;;
59273;SDS011;45044;41.572;24.730;2024-01-15T02:56:07;16.57;;;7.03;;
59273;SDS011;45044;41.572;24.730;2024-01-15T02:58:34;13.97;;;7.73;;
59273;SDS011;45044;41.572;24.730;2024-01-15T03:01:01;16.77;;;6.90;;
59273;SDS011;45044;41.572;24.730;2024-01-15T03:03:28;17.93;;;6.33;;
59273;SDS011;45044;41.572;24.730;2024-01-15T03:05:55;22.13;;;10.57;;
59273;SDS011;45044;41.572;24.730;2024-01-15T03:08:22;33.00;;;16.83;;
59273;SDS011;45044;41.572;24.730;2024-01-15T03:10:49;26.70;;;13.67;;
59273;SDS011;45044;41.572;24.730;2024-01-15T03:13:16;21.93;;;10.77;;
59273;SDS011;45044;41.572;24.730;2024-01-15T03:15:43;25.30;;;12.70;;
59273;SDS011;45044;41.572;24.730;2024-01-15T03:18:10;25.40;;;11.47;;
59273;SDS011;45044;41.572;24.730;2024-01-15T03:20:37;27.03;;;11.60;;
59273;SDS011;45044;41.572;24.730;2024-01-15T03:23:03;19.23;;;9.03;;
59273;SDS011;45044;41.572;24.730;2024-01-15T03:25:30;15.70;;;8.27;;
59273;SDS011;45044;41.572;24.730;2024-01-15T03:27:57;20.47;;;8.70;;
59273;SDS011;45044;41.572;24.730;2024-01-15T03:30:24;26.57;;;15.00;;
59273;SDS011;45044;41.572;24.730;2024-01-15T03:32:51;27.83;;;13.30;;
59273;SDS011;45044;41.572;24.730;2024-01-15T03:35:17;24.70;;;13.37;;
59273;SDS011;45044;41.572;24.730;2024-01-15T03:37:44;35.57;;;17.90;;
59273;SDS011;45044;41.572;24.730;2024-01-15T03:40:11;39.53;;;21.73;;
59273;SDS011;45044;41.572;24.730;2024-01-15T03:42:39;51.00;;;24.10;;
59273;SDS011;45044;41.572;24.730;2024-01-15T03:45:06;40.83;;;19.17;;
59273;SDS011;45044;41.572;24.730;2024-01-15T03:47:37;33.60;;;16.67;;
59273;SDS011;45044;41.572;24.730;2024-01-15T03:50:04;30.37;;;15.97;;
59273;SDS011;45044;41.572;24.730;2024-01-15T03:52:31;27.73;;;13.80;;
59273;SDS011;45044;41.572;24.730;2024-01-15T03:54:58;22.87;;;14.03;;
59273;SDS011;45044;41.572;24.730;2024-01-15T03:57:25;18.47;;;11.37;;
59273;SDS011;45044;41.572;24.730;2024-01-15T03:59:53;18.10;;;10.50;;
59273;SDS011;45044;41.572;24.730;2024-01-15T04:02:19;19.43;;;12.70;;
59273;SDS011;45044;41.572;24.730;2024-01-15T04:04:46;15.03;;;9.20;;
59273;SDS011;45044;41.572;24.730;2024-01-15T04:07:13;14.07;;;8.50;;
59273;SDS011;45044;41.572;24.730;2024-01-15T04:09:40;19.63;;;11.67;;
59273;SDS011;45044;41.572;24.730;2024-01-15T04:12:07;30.43;;;16.93;;
59273;SDS011;45044;41.572;24.730;2024-01-15T04:14:34;49.00;;;24.03;;
59273;SDS011;45044;41.572;24.730;2024-01-15T04:17:00;27.90;;;16.60;;
59273;SDS011;45044;41.572;24.730;2024-01-15T04:19:27;27.33;;;15.53;;
59273;SDS011;45044;41.572;24.730;2024-01-15T04:21:54;28.00;;;14.33;;
59273;SDS011;45044;41.572;24.730;2024-01-15T04:24:21;71.33;;;28.97;;
59273;SDS011;45044;41.572;24.730;2024-01-15T04:26:48;40.43;;;19.10;;
59273;SDS011;45044;41.572;24.730;2024-01-15T04:29:14;56.73;;;23.47;;
59273;SDS011;45044;41.572;24.730;2024-01-15T04:31:41;39.13;;;19.33;;
59273;SDS011;45044;41.572;24.730;2024-01-15T04:34:08;34.23;;;19.07;;
59273;SDS011;45044;41.572;24.730;2024-01-15T04:36:38;42.87;;;21.53;;
59273;SDS011;45044;41.572;24.730;2024-01-15T04:39:06;44.53;;;20.57;;
59273;SDS011;45044;41.572;24.730;2024-01-15T04:41:34;44.73;;;23.13;;
59273;SDS011;45044;41.572;24.730;2024-01-15T04:44:01;46.23;;;21.73;;
59273;SDS011;45044;41.572;24.730;2024-01-15T04:46:27;45.83;;;22.93;;
59273;SDS011;45044;41.572;24.730;2024-01-15T04:48:54;38.70;;;21.57;;
59273;SDS011;45044;41.572;24.730;2024-01-15T04:51:21;40.33;;;20.20;;
59273;SDS011;45044;41.572;24.730;2024-01-15T04:53:48;38.80;;;18.43;;
59273;SDS011;45044;41.572;24.730;2024-01-15T04:56:15;30.13;;;14.07;;
59273;SDS011;45044;41.572;24.730;2024-01-15T04:58:41;28.90;;;15.07;;
59273;SDS011;45044;41.572;24.730;2024-01-15T05:01:08;32.70;;;16.87;;
59273;SDS011;45044;41.572;24.730;2024-01-15T05:03:37;27.00;;;13.80;;
59273;SDS011;45044;41.572;24.730;2024-01-15T05:06:04;44.47;;;19.63;;
59273;SDS011;45044;41.572;24.730;2024-01-15T05:08:32;23.07;;;14.47;;
59273;SDS011;45044;41.572;24.730;2024-01-15T05:10:59;33.47;;;19.63;;
59273;SDS011;45044;41.572;24.730;2024-01-15T05:13:26;55.13;;;37.40;;
59273;SDS011;45044;41.572;24.730;2024-01-15T05:15:52;45.90;;;33.70;;
59273;SDS011;45044;41.572;24.730;2024-01-15T05:18:19;44.07;;;30.33;;
59273;SDS011;45044;41.572;24.730;2024-01-15T05:20:46;50.43;;;30.80;;
59273;SDS011;45044;41.572;24.730;2024-01-15T05:23:13;46.40;;;27.80;;
59273;SDS011;45044;41.572;24.730;2024-01-15T05:25:41;39.70;;;23.80;;
59273;SDS011;45044;41.572;24.730;2024-01-15T05:28:08;36.53;;;23.50;;
59273;SDS011;45044;41.572;24.730;2024-01-15T05:30:35;61.90;;;36.37;;
59273;SDS011;45044;41.572;24.730;2024-01-15T05:33:02;79.43;;;39.67;;
59273;SDS011;45044;41.572;24.730;2024-01-15T05:35:29;75.10;;;38.30;;
59273;SDS011;45044;41.572;24.730;2024-01-15T05:37:56;77.23;;;42.10;;
59273;SDS011;45044;41.572;24.730;2024-01-15T05:40:23;88.70;;;47.43;;
59273;SDS011;45044;41.572;24.730;2024-01-15T05:42:49;116.10;;;51.20;;
59273;SDS011;45044;41.572;24.730;2024-01-15T05:45:18;111.43;;;53.47;;
59273;SDS011;45044;41.572;24.730;2024-01-15T05:47:44;74.73;;;38.30;;
59273;SDS011;45044;41.572;24.730;2024-01-15T05:50:11;47.90;;;26.77;;
59273;SDS011;45044;41.572;24.730;2024-01-15T05:52:39;54.87;;;29.10;;
59273;SDS011;45044;41.572;24.730;2024-01-15T05:55:06;69.03;;;31.73;;
59273;SDS011;45044;41.572;24.730;2024-01-15T05:57:33;92.93;;;38.30;;
59273;SDS011;45044;41.572;24.730;2024-01-15T06:00:00;66.63;;;33.03;;
59273;SDS011;45044;41.572;24.730;2024-01-15T06:02:29;67.60;;;32.87;;
59273;SDS011;45044;41.572;24.730;2024-01-15T06:04:58;85.47;;;36.93;;
59273;SDS011;45044;41.572;24.730;2024-01-15T06:07:26;85.97;;;37.37;;
59273;SDS011;45044;41.572;24.730;2024-01-15T06:09:53;88.20;;;38.97;;
59273;SDS011;45044;41.572;24.730;2024-01-15T06:12:20;97.67;;;44.57;;
59273;SDS011;45044;41.572;24.730;2024-01-15T06:14:47;100.97;;;46.93;;
59273;SDS011;45044;41.572;24.730;2024-01-15T06:17:14;83.47;;;42.97;;
59273;SDS011;45044;41.572;24.730;2024-01-15T06:19:41;89.93;;;43.53;;
59273;SDS011;45044;41.572;24.730;2024-01-15T06:22:09;67.00;;;35.60;;
59273;SDS011;45044;41.572;24.730;2024-01-15T06:24:35;123.47;;;59.27;;
59273;SDS011;45044;41.572;24.730;2024-01-15T06:27:02;147.50;;;75.80;;
59273;SDS011;45044;41.572;24.730;2024-01-15T06:29:30;143.37;;;70.20;;
59273;SDS011;45044;41.572;24.730;2024-01-15T06:31:58;98.53;;;50.37;;
59273;SDS011;45044;41.572;24.730;2024-01-15T06:34:25;120.87;;;58.17;;
59273;SDS011;45044;41.572;24.730;2024-01-15T06:36:52;225.10;;;88.33;;
59273;SDS011;45044;41.572;24.730;2024-01-15T06:39:19;116.63;;;56.83;;
59273;SDS011;45044;41.572;24.730;2024-01-15T06:41:46;114.07;;;52.67;;
59273;SDS011;45044;41.572;24.730;2024-01-15T06:44:13;164.93;;;78.70;;
59273;SDS011;45044;41.572;24.730;2024-01-15T06:46:42;122.80;;;64.60;;
59273;SDS011;45044;41.572;24.730;2024-01-15T06:49:09;143.60;;;70.07;;
59273;SDS011;45044;41.572;24.730;2024-01-15T06:51:37;163.03;;;79.80;;
59273;SDS011;45044;41.572;24.730;2024-01-15T06:54:04;137.43;;;68.37;;
59273;SDS011;45044;41.572;24.730;2024-01-15T06:56:31;81.23;;;45.97;;
59273;SDS011;45044;41.572;24.730;2024-01-15T06:58:58;100.17;;;49.27;;
59273;SDS011;45044;41.572;24.730;2024-01-15T07:01:25;98.73;;;50.37;;
59273;SDS011;45044;41.572;24.730;2024-01-15T07:03:52;109.23;;;54.40;;
59273;SDS011;45044;41.572;24.730;2024-01-15T07:06:19;101.07;;;51.57;;
59273;SDS011;45044;41.572;24.730;2024-01-15T07:08:46;99.90;;;53.87;;
59273;SDS011;45044;41.572;24.730;2024-01-15T07:11:13;85.30;;;48.87;;
59273;SDS011;45044;41.572;24.730;2024-01-15T07:13:41;95.70;;;51.17;;
59273;SDS011;45044;41.572;24.730;2024-01-15T07:16:08;103.30;;;48.90;;
59273;SDS011;45044;41.572;24.730;2024-01-15T07:18:36;79.43;;;41.53;;
59273;SDS011;45044;41.572;24.730;2024-01-15T07:21:03;91.13;;;49.50;;
59273;SDS011;45044;41.572;24.730;2024-01-15T07:23:31;83.53;;;43.87;;
59273;SDS011;45044;41.572;24.730;2024-01-15T07:25:58;88.53;;;46.63;;
59273;SDS011;45044;41.572;24.730;2024-01-15T07:28:25;87.73;;;49.13;;
59273;SDS011;45044;41.572;24.730;2024-01-15T07:30:52;99.13;;;51.23;;
59273;SDS011;45044;41.572;24.730;2024-01-15T07:33:19;92.57;;;49.60;;
59273;SDS011;45044;41.572;24.730;2024-01-15T07:35:46;82.47;;;47.83;;
59273;SDS011;45044;41.572;24.730;2024-01-15T07:38:13;80.97;;;45.30;;
59273;SDS011;45044;41.572;24.730;2024-01-15T07:40:40;74.63;;;46.03;;
59273;SDS011;45044;41.572;24.730;2024-01-15T07:43:07;71.60;;;41.27;;
59273;SDS011;45044;41.572;24.730;2024-01-15T07:45:34;50.83;;;34.05;;
59273;SDS011;45044;41.572;24.730;2024-01-15T07:48:01;81.05;;;55.67;;
59273;SDS011;45044;41.572;24.730;2024-01-15T07:50:27;82.78;;;53.47;;
59273;SDS011;45044;41.572;24.730;2024-01-15T07:52:54;80.27;;;51.57;;
59273;SDS011;45044;41.572;24.730;2024-01-15T07:55:21;73.73;;;48.93;;
59273;SDS011;45044;41.572;24.730;2024-01-15T07:57:50;68.80;;;45.67;;
59273;SDS011;45044;41.572;24.730;2024-01-15T08:00:31;58.50;;;40.20;;
59273;SDS011;45044;41.572;24.730;2024-01-15T08:02:59;62.90;;;39.33;;
59273;SDS011;45044;41.572;24.730;2024-01-15T08:05:25;49.00;;;33.43;;
59273;SDS011;45044;41.572;24.730;2024-01-15T08:07:52;47.15;;;30.90;;
59273;SDS011;45044;41.572;24.730;2024-01-15T08:10:24;58.30;;;33.35;;
59273;SDS011;45044;41.572;24.730;2024-01-15T08:12:51;42.13;;;28.63;;
59273;SDS011;45044;41.572;24.730;2024-01-15T08:15:18;76.13;;;54.05;;
59273;SDS011;45044;41.572;24.730;2024-01-15T08:17:45;63.85;;;45.13;;
59273;SDS011;45044;41.572;24.730;2024-01-15T08:20:12;57.92;;;39.67;;
59273;SDS011;45044;41.572;24.730;2024-01-15T08:22:38;55.78;;;36.13;;
59273;SDS011;45044;41.572;24.730;2024-01-15T08:25:05;58.22;;;39.60;;
59273;SDS011;45044;41.572;24.730;2024-01-15T08:27:32;64.90;;;41.03;;
59273;SDS011;45044;41.572;24.730;2024-01-15T08:29:59;58.88;;;39.08;;
59273;SDS011;45044;41.572;24.730;2024-01-15T08:32:26;58.95;;;41.35;;
59273;SDS011;45044;41.572;24.730;2024-01-15T08:34:54;61.47;;;36.80;;
59273;SDS011;45044;41.572;24.730;2024-01-15T08:37:21;49.65;;;31.95;;
59273;SDS011;45044;41.572;24.730;2024-01-15T08:39:48;53.97;;;34.95;;
59273;SDS011;45044;41.572;24.730;2024-01-15T08:42:17;49.85;;;30.20;;
59273;SDS011;45044;41.572;24.730;2024-01-15T08:44:45;50.90;;;35.40;;
59273;SDS011;45044;41.572;24.730;2024-01-15T08:47:13;34.65;;;24.50;;
59273;SDS011;45044;41.572;24.730;2024-01-15T08:49:40;42.20;;;28.50;;
59273;SDS011;45044;41.572;24.730;2024-01-15T08:52:10;38.13;;;25.85;;
59273;SDS011;45044;41.572;24.730;2024-01-15T08:54:37;30.17;;;21.25;;
59273;SDS011;45044;41.572;24.730;2024-01-15T08:57:04;35.00;;;23.00;;
59273;SDS011;45044;41.572;24.730;2024-01-15T08:59:30;45.63;;;27.90;;
59273;SDS011;45044;41.572;24.730;2024-01-15T09:01:57;46.90;;;30.83;;
59273;SDS011;45044;41.572;24.730;2024-01-15T09:04:24;44.53;;;29.85;;
59273;SDS011;45044;41.572;24.730;2024-01-15T09:06:51;40.47;;;27.60;;
59273;SDS011;45044;41.572;24.730;2024-01-15T09:09:18;39.25;;;25.13;;
59273;SDS011;45044;41.572;24.730;2024-01-15T09:11:46;34.67;;;21.40;;
59273;SDS011;45044;41.572;24.730;2024-01-15T09:14:13;30.15;;;18.38;;
59273;SDS011;45044;41.572;24.730;2024-01-15T09:16:42;42.47;;;26.25;;
59273;SDS011;45044;41.572;24.730;2024-01-15T09:19:09;53.10;;;26.00;;
59273;SDS011;45044;41.572;24.730;2024-01-15T09:21:38;27.80;;;16.02;;
59273;SDS011;45044;41.572;24.730;2024-01-15T09:24:05;32.03;;;19.85;;
59273;SDS011;45044;41.572;24.730;2024-01-15T09:26:32;34.63;;;21.85;;
59273;SDS011;45044;41.572;24.730;2024-01-15T09:28:58;25.23;;;15.48;;
59273;SDS011;45044;41.572;24.730;2024-01-15T09:31:26;32.72;;;21.15;;
59273;SDS011;45044;41.572;24.730;2024-01-15T09:33:53;41.93;;;22.07;;
59273;SDS011;45044;41.572;24.730;2024-01-15T09:36:23;50.33;;;26.25;;
59273;SDS011;45044;41.572;24.730;2024-01-15T09:38:50;50.30;;;25.73;;
59273;SDS011;45044;41.572;24.730;2024-01-15T09:41:17;36.60;;;21.58;;
59273;SDS011;45044;41.572;24.730;2024-01-15T09:43:44;37.22;;;22.95;;
59273;SDS011;45044;41.572;24.730;2024-01-15T09:46:13;30.07;;;18.13;;
59273;SDS011;45044;41.572;24.730;2024-01-15T09:48:41;23.87;;;12.67;;
59273;SDS011;45044;41.572;24.730;2024-01-15T09:51:08;15.23;;;8.50;;
59273;SDS011;45044;41.572;24.730;2024-01-15T09:53:35;14.85;;;9.65;;
59273;SDS011;45044;41.572;24.730;2024-01-15T09:56:06;16.63;;;10.13;;
59273;SDS011;45044;41.572;24.730;2024-01-15T09:58:33;16.33;;;7.88;;
59273;SDS011;45044;41.572;24.730;2024-01-15T10:01:01;13.07;;;6.13;;
59273;SDS011;45044;41.572;24.730;2024-01-15T10:03:34;24.92;;;10.68;;
59273;SDS011;45044;41.572;24.730;2024-01-15T10:06:01;13.70;;;7.15;;
59273;SDS011;45044;41.572;24.730;2024-01-15T10:08:28;12.27;;;6.18;;
59273;SDS011;45044;41.572;24.730;2024-01-15T10:10:55;8.68;;;4.20;;
59273;SDS011;45044;41.572;24.730;2024-01-15T10:13:22;10.15;;;4.60;;
59273;SDS011;45044;41.572;24.730;2024-01-15T10:15:49;6.15;;;2.90;;
59273;SDS011;45044;41.572;24.730;2024-01-15T10:18:16;31.42;;;13.77;;
59273;SDS011;45044;41.572;24.730;2024-01-15T10:20:44;16.75;;;9.20;;
59273;SDS011;45044;41.572;24.730;2024-01-15T10:23:11;4.88;;;1.98;;
59273;SDS011;45044;41.572;24.730;2024-01-15T10:25:41;6.97;;;2.90;;
59273;SDS011;45044;41.572;24.730;2024-01-15T10:28:09;4.95;;;2.00;;
59273;SDS011;45044;41.572;24.730;2024-01-15T10:30:37;6.97;;;2.85;;
59273;SDS011;45044;41.572;24.730;2024-01-15T10:33:04;7.45;;;2.90;;
59273;SDS011;45044;41.572;24.730;2024-01-15T10:35:32;2.97;;;1.77;;
59273;SDS011;45044;41.572;24.730;2024-01-15T10:38:00;4.53;;;1.63;;
59273;SDS011;45044;41.572;24.730;2024-01-15T10:40:28;3.53;;;1.70;;
59273;SDS011;45044;41.572;24.730;2024-01-15T10:42:56;4.95;;;2.63;;
59273;SDS011;45044;41.572;24.730;2024-01-15T10:45:23;4.30;;;2.30;;
59273;SDS011;45044;41.572;24.730;2024-01-15T10:47:50;6.57;;;2.60;;
59273;SDS011;45044;41.572;24.730;2024-01-15T10:50:19;9.50;;;4.43;;
59273;SDS011;45044;41.572;24.730;2024-01-15T10:52:46;10.82;;;5.15;;
59273;SDS011;45044;41.572;24.730;2024-01-15T10:55:14;6.45;;;2.80;;
59273;SDS011;45044;41.572;24.730;2024-01-15T10:57:45;3.60;;;1.73;;
59273;SDS011;45044;41.572;24.730;2024-01-15T11:00:16;4.18;;;1.80;;
59273;SDS011;45044;41.572;24.730;2024-01-15T11:02:43;6.32;;;3.22;;
59273;SDS011;45044;41.572;24.730;2024-01-15T11:05:11;6.93;;;2.63;;
59273;SDS011;45044;41.572;24.730;2024-01-15T11:07:39;5.28;;;2.15;;
59273;SDS011;45044;41.572;24.730;2024-01-15T11:10:06;2.17;;;1.30;;
59273;SDS011;45044;41.572;24.730;2024-01-15T11:12:37;3.03;;;1.73;;
59273;SDS011;45044;41.572;24.730;2024-01-15T11:15:08;4.50;;;2.60;;
59273;SDS011;45044;41.572;24.730;2024-01-15T11:20:26;5.80;;;2.38;;
59273;SDS011;45044;41.572;24.730;2024-01-15T11:22:53;5.40;;;2.92;;
59273;SDS011;45044;41.572;24.730;2024-01-15T11:25:20;4.43;;;1.95;;
59273;SDS011;45044;41.572;24.730;2024-01-15T11:27:47;6.25;;;2.47;;
59273;SDS011;45044;41.572;24.730;2024-01-15T11:30:20;2.78;;;1.70;;
59273;SDS011;45044;41.572;24.730;2024-01-15T11:32:52;3.55;;;1.67;;
59273;SDS011;45044;41.572;24.730;2024-01-15T11:35:19;4.82;;;2.03;;
59273;SDS011;45044;41.572;24.730;2024-01-15T11:40:21;6.03;;;2.13;;
59273;SDS011;45044;41.572;24.730;2024-01-15T11:43:03;5.00;;;2.75;;
59273;SDS011;45044;41.572;24.730;2024-01-15T11:45:30;5.30;;;2.10;;
59273;SDS011;45044;41.572;24.730;2024-01-15T11:48:13;6.75;;;2.22;;
59273;SDS011;45044;41.572;24.730;2024-01-15T11:50:44;7.85;;;2.83;;
59273;SDS011;45044;41.572;24.730;2024-01-15T11:53:16;3.70;;;1.20;;
59273;SDS011;45044;41.572;24.730;2024-01-15T11:55:50;5.55;;;2.58;;
59273;SDS011;45044;41.572;24.730;2024-01-15T11:58:21;5.47;;;2.72;;
59273;SDS011;45044;41.572;24.730;2024-01-15T12:00:48;4.70;;;1.80;;
59273;SDS011;45044;41.572;24.730;2024-01-15T12:03:23;3.67;;;1.90;;
59273;SDS011;45044;41.572;24.730;2024-01-15T12:05:53;4.90;;;2.28;;
59273;SDS011;45044;41.572;24.730;2024-01-15T12:08:22;3.63;;;1.58;;
59273;SDS011;45044;41.572;24.730;2024-01-15T12:10:49;6.20;;;2.30;;
59273;SDS011;45044;41.572;24.730;2024-01-15T12:13:16;3.47;;;2.15;;
59273;SDS011;45044;41.572;24.730;2024-01-15T12:15:45;8.75;;;4.00;;
59273;SDS011;45044;41.572;24.730;2024-01-15T12:18:15;3.92;;;1.92;;
59273;SDS011;45044;41.572;24.730;2024-01-15T12:20:44;3.08;;;1.35;;
59273;SDS011;45044;41.572;24.730;2024-01-15T12:23:15;7.85;;;2.83;;
59273;SDS011;45044;41.572;24.730;2024-01-15T12:25:43;3.58;;;1.58;;
59273;SDS011;45044;41.572;24.730;2024-01-15T12:28:10;5.05;;;1.77;;
59273;SDS011;45044;41.572;24.730;2024-01-15T12:30:38;3.60;;;2.03;;
59273;SDS011;45044;41.572;24.730;2024-01-15T12:33:06;6.93;;;3.17;;
59273;SDS011;45044;41.572;24.730;2024-01-15T12:35:35;4.97;;;2.33;;
59273;SDS011;45044;41.572;24.730;2024-01-15T12:38:03;3.20;;;1.58;;
59273;SDS011;45044;41.572;24.730;2024-01-15T12:40:31;5.00;;;2.35;;
59273;SDS011;45044;41.572;24.730;2024-01-15T12:43:03;9.00;;;3.45;;
59273;SDS011;45044;41.572;24.730;2024-01-15T12:45:31;9.25;;;4.05;;
59273;SDS011;45044;41.572;24.730;2024-01-15T12:47:59;4.63;;;1.98;;
59273;SDS011;45044;41.572;24.730;2024-01-15T12:50:27;4.20;;;2.08;;
59273;SDS011;45044;41.572;24.730;2024-01-15T12:52:54;5.40;;;3.13;;
59273;SDS011;45044;41.572;24.730;2024-01-15T12:55:21;3.15;;;1.65;;
59273;SDS011;45044;41.572;24.730;2024-01-15T12:57:49;7.18;;;2.33;;
59273;SDS011;45044;41.572;24.730;2024-01-15T13:00:19;4.25;;;1.98;;
59273;SDS011;45044;41.572;24.730;2024-01-15T13:02:46;6.03;;;2.72;;
59273;SDS011;45044;41.572;24.730;2024-01-15T13:05:13;3.83;;;2.10;;
59273;SDS011;45044;41.572;24.730;2024-01-15T13:07:41;4.22;;;2.33;;
59273;SDS011;45044;41.572;24.730;2024-01-15T13:10:09;3.90;;;1.70;;
59273;SDS011;45044;41.572;24.730;2024-01-15T13:12:37;6.80;;;3.05;;
59273;SDS011;45044;41.572;24.730;2024-01-15T13:15:05;3.97;;;1.70;;
59273;SDS011;45044;41.572;24.730;2024-01-15T13:17:39;5.95;;;2.72;;
59273;SDS011;45044;41.572;24.730;2024-01-15T13:20:06;8.02;;;3.50;;
59273;SDS011;45044;41.572;24.730;2024-01-15T13:22:35;14.15;;;7.32;;
59273;SDS011;45044;41.572;24.730;2024-01-15T13:25:06;8.38;;;3.22;;
59273;SDS011;45044;41.572;24.730;2024-01-15T13:27:34;14.60;;;8.32;;
59273;SDS011;45044;41.572;24.730;2024-01-15T13:30:05;5.75;;;2.75;;
59273;SDS011;45044;41.572;24.730;2024-01-15T13:32:35;3.67;;;1.75;;
59273;SDS011;45044;41.572;24.730;2024-01-15T13:35:03;7.50;;;3.45;;
59273;SDS011;45044;41.572;24.730;2024-01-15T13:37:34;15.30;;;5.75;;
59273;SDS011;45044;41.572;24.730;2024-01-15T13:40:02;5.15;;;2.15;;
59273;SDS011;45044;41.572;24.730;2024-01-15T13:42:30;6.35;;;2.60;;
59273;SDS011;45044;41.572;24.730;2024-01-15T13:44:58;9.75;;;4.82;;
59273;SDS011;45044;41.572;24.730;2024-01-15T13:47:25;5.15;;;2.45;;
59273;SDS011;45044;41.572;24.730;2024-01-15T13:49:53;6.28;;;2.65;;
59273;SDS011;45044;41.572;24.730;2024-01-15T13:52:21;7.35;;;3.85;;
59273;SDS011;45044;41.572;24.730;2024-01-15T13:54:48;4.90;;;2.33;;
59273;SDS011;45044;41.572;24.730;2024-01-15T13:57:17;4.25;;;2.10;;
59273;SDS011;45044;41.572;24.730;2024-01-15T13:59:47;9.25;;;3.33;;
59273;SDS011;45044;41.572;24.730;2024-01-15T14:02:15;6.32;;;3.10;;
59273;SDS011;45044;41.572;24.730;2024-01-15T14:04:47;8.93;;;3.50;;
59273;SDS011;45044;41.572;24.730;2024-01-15T14:07:15;10.63;;;4.80;;
59273;SDS011;45044;41.572;24.730;2024-01-15T14:09:42;10.18;;;4.97;;
59273;SDS011;45044;41.572;24.730;2024-01-15T14:12:09;9.40;;;4.30;;
59273;SDS011;45044;41.572;24.730;2024-01-15T14:14:38;8.90;;;4.43;;
59273;SDS011;45044;41.572;24.730;2024-01-15T14:17:07;13.52;;;6.90;;
59273;SDS011;45044;41.572;24.730;2024-01-15T14:19:33;4.43;;;1.83;;
59273;SDS011;45044;41.572;24.730;2024-01-15T14:22:01;3.08;;;1.92;;
59273;SDS011;45044;41.572;24.730;2024-01-15T14:24:28;9.82;;;4.13;;